Bardstown, Kentucky
Current Conditions -  °F | °C
As of 9:58 PM on Monday 20 Oct 2014 (Local Time) from KFTK Reporting Station
Broken Clouds Broken Clouds  
Wind Chill: 60°   Ceiling: 8000
Heat Index: 60°   Visibility: 10mi
Dew Point: 52°   Wind: 7mph
Humidity: 76%   Direction: 240°WSW
Pressure: 29.93"   Gusts: NA
Location:  37.81°N, 85.47°W
Report Text: KFTK 210158Z 24006KT 10SM FEW046 SCT060 BKN080 15/11 A2993 RMK AO2A SLP138 T01540111
Loading
Personal Weather Stations






























Interactive Weather Map New forecast layout! Learn more

10-Day Weather Forecast

Advertisements
Track Severe Weather on mobile